Terminal Aerodrome Forecast
Issued by NWS

Home | Current Version | Previous Version | Graphics & Text | Print | Product List | Glossary On
Versions: 1 2 3 4 5 6 7 8 9 10 11 12 13 14 15
000
FTUS43 KBIS 271100 RRA
TAFMOT
TAF
KMOT 271148Z 2712/2812 VRB03KT P6SM SCT300
     FM271500 18006KT P6SM SCT300
     FM272100 24005KT P6SM SCT300
     FM280300 32006KT P6SM SCT015 SCT250
     FM280700 36005KT P6SM BKN018 BKN180=

USA.gov is the U.S. government's official web portal to all federal, state and local government web resources and services.